createdAt,value
2023-02-15T00:00:01.732Z,61.60
2023-02-15T00:02:41.660Z,58.72
2023-02-15T00:05:16.224Z,65.03
2023-02-15T00:07:51.163Z,63.75
2023-02-15T00:10:27.779Z,62.47
2023-02-15T00:13:02.329Z,62.15
2023-02-15T00:15:35.303Z,68.38
2023-02-15T00:18:16.352Z,71.00
2023-02-15T00:20:51.076Z,68.03
2023-02-15T00:23:24.332Z,68.10
2023-02-15T00:26:06.091Z,72.43
2023-02-15T00:28:42.104Z,65.88
2023-02-15T00:31:16.529Z,64.38
2023-02-15T00:33:49.620Z,61.08
2023-02-15T00:38:56.820Z,66.40
2023-02-15T00:41:29.945Z,72.82
2023-02-15T00:44:07.496Z,63.58
2023-02-15T00:46:40.980Z,58.80
2023-02-15T00:49:15.717Z,58.55
2023-02-15T00:54:27.942Z,59.92
2023-02-15T00:57:01.044Z,60.20
2023-02-15T00:59:34.407Z,60.80
2023-02-15T01:02:07.768Z,62.35
2023-02-15T01:04:42.216Z,57.70
2023-02-15T01:07:16.861Z,56.13
2023-02-15T01:09:51.937Z,58.55
2023-02-15T01:12:25.073Z,55.28
2023-02-15T01:14:58.204Z,54.35
2023-02-15T01:17:33.508Z,55.85
2023-02-15T01:20:08.066Z,52.60
2023-02-15T01:22:42.491Z,54.53
2023-02-15T01:25:15.792Z,58.95
2023-02-15T01:27:54.206Z,57.17
2023-02-15T01:30:27.540Z,51.17
2023-02-15T01:33:01.791Z,53.13
2023-02-15T01:35:39.086Z,53.88
2023-02-15T01:38:13.864Z,53.50
2023-02-15T01:40:47.001Z,57.63
2023-02-15T01:43:20.445Z,52.80
2023-02-15T01:45:53.409Z,57.17
2023-02-15T01:51:04.689Z,56.08
2023-02-15T01:53:44.404Z,51.50
2023-02-15T01:56:21.259Z,53.97
2023-02-15T01:59:07.372Z,50.90
2023-02-15T02:01:41.107Z,54.45
2023-02-15T02:04:19.513Z,48.15
2023-02-15T02:06:56.258Z,51.00
2023-02-15T02:09:32.390Z,50.95
2023-02-15T02:12:06.040Z,51.13
2023-02-15T02:14:40.954Z,51.72
2023-02-15T02:17:20.819Z,51.28
2023-02-15T02:20:21.910Z,54.83
2023-02-15T02:23:32.343Z,45.28
2023-02-15T02:26:44.341Z,50.42
2023-02-15T02:30:00.666Z,40.60
2023-02-15T02:33:15.676Z,53.97
2023-02-15T02:36:03.869Z,53.45
2023-02-15T02:38:50.658Z,52.33
2023-02-15T02:41:34.964Z,46.50
2023-02-15T02:44:15.824Z,45.85
2023-02-15T02:46:55.397Z,46.72
2023-02-15T02:49:36.983Z,48.20
2023-02-15T02:52:39.140Z,48.88
2023-02-15T02:55:17.893Z,48.88
2023-02-15T02:57:56.181Z,51.88
2023-02-15T03:00:33.872Z,47.92
2023-02-15T03:03:11.762Z,47.30
2023-02-15T03:05:49.600Z,45.42
2023-02-15T03:08:29.944Z,43.60
2023-02-15T03:11:06.450Z,43.05
2023-02-15T03:13:39.898Z,41.38
2023-02-15T03:16:29.853Z,47.13
2023-02-15T03:19:07.952Z,45.35
2023-02-15T03:21:50.435Z,46.47
2023-02-15T03:24:27.450Z,33.13
2023-02-15T03:27:02.033Z,41.80
2023-02-15T03:29:37.073Z,44.47
2023-02-15T03:32:13.521Z,45.10
2023-02-15T03:34:47.623Z,41.03
2023-02-15T03:37:28.540Z,41.58
2023-02-15T03:40:23.879Z,41.85
2023-02-15T03:43:03.835Z,45.72
2023-02-15T03:45:55.336Z,41.45
2023-02-15T03:48:31.832Z,44.33
2023-02-15T03:51:27.335Z,45.13
2023-02-15T03:54:02.460Z,41.92
2023-02-15T03:56:38.529Z,41.80
2023-02-15T03:59:29.112Z,44.40
2023-02-15T04:02:16.289Z,35.72
2023-02-15T04:04:50.701Z,40.50
2023-02-15T04:07:23.430Z,40.15
2023-02-15T04:10:13.926Z,37.67
2023-02-15T04:12:48.165Z,40.72
2023-02-15T04:15:38.681Z,38.97
2023-02-15T04:18:11.643Z,41.88
2023-02-15T04:23:53.904Z,40.13
2023-02-15T04:26:26.737Z,42.15
2023-02-15T04:31:33.837Z,39.30
2023-02-15T04:34:06.797Z,44.67
2023-02-15T04:39:15.508Z,46.20
2023-02-15T04:41:49.239Z,42.10
2023-02-15T04:44:23.481Z,41.30
2023-02-15T04:46:56.339Z,38.47
2023-02-15T04:52:02.421Z,41.78
2023-02-15T04:54:35.186Z,40.17
2023-02-15T04:57:08.481Z,39.63
2023-02-15T04:59:42.727Z,39.33
2023-02-15T05:02:15.617Z,39.58
2023-02-15T05:04:48.535Z,38.95
2023-02-15T05:09:55.249Z,39.38
2023-02-15T05:12:28.399Z,36.50
2023-02-15T05:15:02.717Z,42.25
2023-02-15T05:17:35.631Z,38.65
2023-02-15T05:25:32.847Z,38.20
2023-02-15T05:28:24.228Z,42.65
2023-02-15T05:31:06.434Z,37.45
2023-02-15T05:33:40.160Z,38.45
2023-02-15T05:36:13.589Z,41.03
2023-02-15T05:38:46.511Z,39.63
2023-02-15T05:43:52.472Z,41.28
2023-02-15T05:46:26.885Z,37.22
2023-02-15T05:48:59.813Z,36.88
2023-02-15T05:51:32.628Z,39.80
2023-02-15T05:54:05.620Z,35.88
2023-02-15T05:59:11.046Z,39.42
2023-02-15T06:04:19.163Z,41.85
2023-02-15T06:06:51.936Z,41.33
2023-02-15T06:09:24.883Z,40.17
2023-02-15T06:11:57.698Z,40.95
2023-02-15T06:14:30.587Z,38.47
2023-02-15T06:19:37.393Z,42.72
2023-02-15T06:22:10.140Z,36.65
2023-02-15T06:24:43.773Z,40.92
2023-02-15T06:27:16.600Z,36.50
2023-02-15T06:29:49.324Z,37.13
2023-02-15T06:32:23.923Z,42.13
2023-02-15T06:34:56.735Z,41.65
2023-02-15T06:37:29.735Z,40.55
2023-02-15T06:40:03.882Z,42.65
2023-02-15T06:42:36.828Z,43.35
2023-02-15T06:45:10.821Z,40.10
2023-02-15T06:47:45.271Z,40.38
2023-02-15T06:50:28.910Z,45.97
2023-02-15T06:53:02.021Z,41.30
2023-02-15T06:55:35.091Z,48.05
2023-02-15T06:58:08.011Z,42.60
2023-02-15T07:03:17.802Z,47.65
2023-02-15T07:05:50.974Z,45.63
2023-02-15T07:08:23.803Z,44.45
2023-02-15T07:11:18.500Z,41.88
2023-02-15T07:13:50.269Z,41.63
2023-02-15T07:16:23.214Z,41.35
2023-02-15T07:18:57.322Z,44.05
2023-02-15T07:21:30.057Z,47.85
2023-02-15T07:24:03.280Z,48.08
2023-02-15T07:26:35.978Z,48.35
2023-02-15T07:29:08.673Z,45.25
2023-02-15T07:31:41.325Z,45.00
2023-02-15T07:34:15.423Z,52.45
2023-02-15T07:36:48.207Z,45.85
2023-02-15T07:39:21.071Z,48.10
2023-02-15T07:44:26.449Z,34.30
2023-02-15T07:46:59.174Z,52.05
2023-02-15T07:49:33.147Z,49.22
2023-02-15T07:52:06.349Z,50.00
2023-02-15T07:54:39.120Z,49.17
2023-02-15T07:57:11.784Z,44.25
2023-02-15T07:59:44.443Z,51.60
2023-02-15T08:02:18.468Z,48.97
2023-02-15T08:04:52.640Z,48.45
2023-02-15T08:07:25.404Z,56.13
2023-02-15T08:09:58.137Z,56.03
2023-02-15T08:12:31.051Z,52.17
2023-02-15T08:17:38.221Z,48.05
2023-02-15T08:20:12.810Z,44.15
2023-02-15T08:22:45.528Z,49.63
2023-02-15T08:25:18.396Z,52.55
2023-02-15T08:30:24.486Z,52.28
2023-02-15T08:35:31.208Z,44.77
2023-02-15T08:38:04.008Z,49.97
2023-02-15T08:40:38.940Z,48.67
2023-02-15T08:43:11.618Z,54.05
2023-02-15T08:45:44.570Z,55.63
2023-02-15T08:48:17.389Z,50.30
2023-02-15T08:50:51.450Z,52.28
2023-02-15T08:53:24.240Z,47.50
2023-02-15T08:55:58.578Z,57.72
2023-02-15T08:58:32.699Z,51.47
2023-02-15T09:01:11.583Z,59.00
2023-02-15T09:03:44.582Z,62.88
2023-02-15T09:08:52.336Z,62.17
2023-02-15T09:11:27.171Z,65.65
2023-02-15T09:14:02.552Z,73.22
2023-02-15T09:16:37.779Z,69.32
2023-02-15T09:19:10.653Z,76.65
2023-02-15T09:21:44.985Z,72.00
2023-02-15T09:24:18.983Z,77.22
2023-02-15T09:26:51.990Z,93.13
2023-02-15T09:34:34.047Z,95.80
2023-02-15T09:37:09.153Z,99.93
2023-02-15T09:39:44.921Z,105.85
2023-02-15T09:42:56.665Z,117.75
2023-02-15T09:45:42.445Z,119.28
2023-02-15T09:48:31.552Z,142.20
2023-02-15T09:51:23.496Z,151.82
2023-02-15T09:54:12.159Z,146.73
2023-02-15T09:56:50.275Z,163.25
2023-02-15T09:59:32.388Z,152.20
2023-02-15T10:02:21.151Z,158.80
2023-02-15T10:05:04.310Z,163.60
2023-02-15T10:07:57.443Z,163.68
2023-02-15T10:10:42.341Z,160.52
2023-02-15T10:13:26.846Z,165.82
2023-02-15T10:16:10.458Z,166.82
2023-02-15T10:18:57.606Z,160.30
2023-02-15T10:21:44.346Z,160.68
2023-02-15T10:24:44.653Z,160.13
2023-02-15T10:27:22.317Z,170.00
2023-02-15T10:30:06.835Z,166.23
2023-02-15T10:32:50.093Z,175.18
2023-02-15T10:38:13.192Z,191.80
2023-02-15T10:40:57.444Z,165.68
2023-02-15T10:43:46.542Z,171.23
2023-02-15T10:46:35.331Z,157.82
2023-02-15T10:49:20.527Z,166.77
2023-02-15T10:52:05.546Z,160.90
2023-02-15T10:54:46.293Z,172.88
2023-02-15T10:57:28.022Z,172.40
2023-02-15T11:00:15.473Z,182.13
2023-02-15T11:03:00.451Z,178.18
2023-02-15T11:05:44.835Z,165.80
2023-02-15T11:08:18.505Z,174.13
2023-02-15T11:10:55.698Z,178.98
2023-02-15T11:13:34.814Z,174.48
2023-02-15T11:16:18.278Z,159.50
2023-02-15T11:18:56.505Z,165.00
2023-02-15T11:21:37.765Z,165.45
2023-02-15T11:24:13.682Z,169.50
2023-02-15T11:26:50.683Z,154.50
2023-02-15T11:29:30.294Z,172.93
2023-02-15T11:32:16.005Z,151.35
2023-02-15T11:34:54.260Z,171.25
2023-02-15T11:37:33.494Z,157.18
2023-02-15T11:40:20.849Z,161.80
2023-02-15T11:42:57.974Z,154.88
2023-02-15T11:45:32.469Z,157.88
2023-02-15T11:48:12.560Z,151.45
2023-02-15T11:50:46.642Z,164.93
2023-02-15T11:53:22.564Z,164.95
2023-02-15T11:55:57.079Z,153.40
2023-02-15T11:58:38.655Z,137.18
2023-02-15T12:01:17.013Z,172.35
2023-02-15T12:03:53.489Z,172.93
2023-02-15T12:06:29.369Z,152.23
2023-02-15T12:09:07.489Z,161.68
2023-02-15T12:11:42.519Z,145.15
2023-02-15T12:14:17.467Z,158.00
2023-02-15T12:16:53.583Z,154.60
2023-02-15T12:19:33.104Z,155.18
2023-02-15T12:22:10.154Z,138.77
2023-02-15T12:24:48.353Z,149.73
2023-02-15T12:27:24.185Z,162.90
2023-02-15T12:30:00.924Z,165.48
2023-02-15T12:32:37.900Z,151.57
2023-02-15T12:35:18.810Z,157.57
2023-02-15T12:37:57.760Z,148.70
2023-02-15T12:40:31.831Z,151.90
2023-02-15T12:43:09.708Z,165.70
2023-02-15T12:45:42.556Z,155.07
2023-02-15T12:50:56.343Z,140.05
2023-02-15T12:53:34.887Z,157.30
2023-02-15T12:56:09.443Z,160.48
2023-02-15T12:58:43.635Z,133.13
2023-02-15T13:01:18.375Z,150.35
2023-02-15T13:04:02.320Z,134.82
2023-02-15T13:06:38.561Z,153.35
2023-02-15T13:09:17.975Z,161.90
2023-02-15T13:11:51.166Z,150.55
2023-02-15T13:14:32.471Z,149.80
2023-02-15T13:17:08.770Z,139.05
2023-02-15T13:19:44.188Z,127.95
2023-02-15T13:22:22.114Z,139.93
2023-02-15T13:24:59.524Z,143.73
2023-02-15T13:27:39.264Z,147.20
2023-02-15T13:30:27.048Z,139.02
2023-02-15T13:33:04.022Z,151.43
2023-02-15T13:35:43.668Z,131.57
2023-02-15T13:38:44.477Z,149.40
2023-02-15T13:41:20.178Z,140.15
2023-02-15T13:44:00.662Z,125.75
2023-02-15T13:46:50.311Z,137.82
2023-02-15T13:49:35.211Z,132.52
2023-02-15T13:52:19.425Z,135.02
2023-02-15T13:55:17.222Z,123.88
2023-02-15T13:58:06.204Z,134.90
2023-02-15T14:00:51.709Z,122.93
2023-02-15T14:03:45.174Z,123.93
2023-02-15T14:06:34.630Z,116.20
2023-02-15T14:09:18.926Z,126.20
2023-02-15T14:12:04.534Z,126.43
2023-02-15T14:15:02.160Z,123.90
2023-02-15T14:17:50.115Z,126.53
2023-02-15T14:20:27.903Z,119.15
2023-02-15T14:23:33.403Z,121.57
2023-02-15T14:26:17.438Z,122.45
2023-02-15T14:29:08.873Z,119.90
2023-02-15T14:31:54.595Z,131.52
2023-02-15T14:34:33.357Z,116.75
2023-02-15T14:37:06.754Z,115.57
2023-02-15T14:40:06.371Z,114.00
2023-02-15T14:42:46.417Z,122.03
2023-02-15T14:45:30.307Z,116.53
2023-02-15T14:48:13.874Z,117.90
2023-02-15T14:50:48.513Z,117.22
2023-02-15T14:53:39.517Z,130.27
2023-02-15T14:56:26.858Z,117.63
2023-02-15T14:59:19.881Z,121.63
2023-02-15T15:01:59.520Z,118.38
2023-02-15T15:04:35.997Z,135.13
2023-02-15T15:07:21.167Z,130.02
2023-02-15T15:10:04.293Z,125.80
2023-02-15T15:15:16.313Z,123.93
2023-02-15T15:18:01.408Z,109.07
2023-02-15T15:20:46.992Z,116.88
2023-02-15T15:23:46.167Z,118.93
2023-02-15T15:26:34.342Z,111.90
2023-02-15T15:29:08.558Z,116.20
2023-02-15T15:31:49.801Z,112.55
2023-02-15T15:35:06.366Z,121.05
2023-02-15T15:37:59.025Z,123.40
2023-02-15T15:41:01.176Z,122.22
2023-02-15T15:44:10.936Z,109.22
2023-02-15T15:47:22.200Z,115.32
2023-02-15T15:49:58.170Z,109.78
2023-02-15T15:52:38.658Z,116.57
2023-02-15T15:55:18.315Z,107.68
2023-02-15T15:57:53.366Z,107.78
2023-02-15T16:00:37.577Z,109.38
2023-02-15T16:03:16.382Z,103.90
2023-02-15T16:05:49.368Z,101.18
2023-02-15T16:11:10.650Z,99.30
2023-02-15T16:13:44.631Z,108.05
2023-02-15T16:16:23.828Z,114.15
2023-02-15T16:19:00.404Z,94.85
2023-02-15T16:21:36.237Z,101.15
2023-02-15T16:24:39.180Z,106.72
2023-02-15T16:27:33.325Z,97.13
2023-02-15T16:30:25.144Z,100.50
2023-02-15T16:33:06.769Z,102.03
2023-02-15T16:35:41.731Z,103.15
2023-02-15T16:38:14.821Z,91.25
2023-02-15T16:40:58.215Z,95.15
2023-02-15T16:43:34.197Z,90.50
2023-02-15T16:46:09.318Z,98.93
2023-02-15T16:48:45.545Z,95.10
2023-02-15T16:51:23.487Z,96.57
2023-02-15T16:53:58.608Z,93.72
2023-02-15T16:56:34.038Z,82.97
2023-02-15T16:59:07.268Z,83.07
2023-02-15T17:01:40.364Z,86.03
2023-02-15T17:04:15.514Z,91.00
2023-02-15T17:07:02.709Z,87.72
2023-02-15T17:09:50.455Z,91.13
2023-02-15T17:12:51.664Z,94.55
2023-02-15T17:15:29.591Z,87.25
2023-02-15T17:18:07.108Z,82.47
2023-02-15T17:20:44.781Z,83.97
2023-02-15T17:23:30.720Z,87.25
2023-02-15T17:26:16.406Z,83.50
2023-02-15T17:28:53.468Z,90.63
2023-02-15T17:31:29.493Z,91.85
2023-02-15T17:34:03.464Z,80.10
2023-02-15T17:36:36.396Z,92.47
2023-02-15T17:41:54.200Z,76.15
2023-02-15T17:44:28.626Z,86.60
2023-02-15T17:47:01.371Z,83.72
2023-02-15T17:49:35.467Z,74.35
2023-02-15T17:52:12.203Z,82.38
2023-02-15T17:55:02.803Z,75.78
2023-02-15T17:57:36.401Z,82.95
2023-02-15T18:00:33.765Z,75.60
2023-02-15T18:03:24.405Z,79.43
2023-02-15T18:06:16.655Z,75.47
2023-02-15T18:09:06.869Z,72.60
2023-02-15T18:11:39.915Z,76.28
2023-02-15T18:14:12.858Z,77.22
2023-02-15T18:16:47.145Z,70.78
2023-02-15T18:19:25.118Z,73.07
2023-02-15T18:21:58.161Z,69.68
2023-02-15T18:27:06.984Z,67.78
2023-02-15T18:29:43.337Z,77.60
2023-02-15T18:32:21.007Z,75.15
2023-02-15T18:34:59.318Z,74.70
2023-02-15T18:37:34.325Z,77.45
2023-02-15T18:40:16.554Z,71.70
2023-02-15T18:42:52.424Z,60.73
2023-02-15T18:45:28.704Z,76.30
2023-02-15T18:48:10.073Z,75.68
2023-02-15T18:50:46.017Z,74.65
2023-02-15T18:53:22.433Z,79.45
2023-02-15T18:55:57.906Z,70.00
2023-02-15T18:58:33.689Z,66.78
2023-02-15T19:01:17.902Z,71.35
2023-02-15T19:03:55.029Z,72.57
2023-02-15T19:06:34.414Z,76.40
2023-02-15T19:09:13.987Z,74.25
2023-02-15T19:11:54.092Z,72.40
2023-02-15T19:14:30.272Z,79.22
2023-02-15T19:17:15.293Z,78.82
2023-02-15T19:19:54.833Z,72.00
2023-02-15T19:22:32.762Z,75.20
2023-02-15T19:25:19.977Z,76.35
2023-02-15T19:27:56.667Z,73.18
2023-02-15T19:30:32.993Z,81.38
2023-02-15T19:33:17.063Z,79.97
2023-02-15T19:35:57.345Z,78.57
2023-02-15T19:38:37.389Z,79.85
2023-02-15T19:41:19.838Z,79.28
2023-02-15T19:43:55.936Z,76.95
2023-02-15T19:46:29.465Z,72.78
2023-02-15T19:49:02.627Z,80.35
2023-02-15T19:51:37.159Z,77.22
2023-02-15T19:54:21.277Z,82.13
2023-02-15T19:56:57.214Z,74.40
2023-02-15T19:59:35.438Z,74.72
2023-02-15T20:02:15.619Z,75.93
2023-02-15T20:04:48.817Z,78.65
2023-02-15T20:07:32.405Z,77.50
2023-02-15T20:10:14.722Z,82.53
2023-02-15T20:12:48.249Z,78.40
2023-02-15T20:15:24.334Z,79.43
2023-02-15T20:18:02.150Z,75.53
2023-02-15T20:20:41.639Z,74.82
2023-02-15T20:23:23.879Z,77.20
2023-02-15T20:26:02.448Z,77.87
2023-02-15T20:28:35.532Z,73.28
2023-02-15T20:31:17.800Z,77.03
2023-02-15T20:33:53.029Z,81.20
2023-02-15T20:36:27.522Z,75.82
2023-02-15T20:39:13.502Z,81.15
2023-02-15T20:41:49.927Z,69.82
2023-02-15T20:44:27.628Z,83.38
2023-02-15T20:47:03.191Z,79.28
2023-02-15T20:49:38.470Z,81.30
2023-02-15T20:52:20.012Z,77.75
2023-02-15T20:54:54.575Z,80.22
2023-02-15T20:57:27.712Z,77.15
2023-02-15T21:00:04.157Z,77.47
2023-02-15T21:02:39.080Z,80.38
2023-02-15T21:05:22.062Z,82.15
2023-02-15T21:07:55.912Z,77.38
2023-02-15T21:10:33.010Z,85.63
2023-02-15T21:13:06.416Z,81.55
2023-02-15T21:15:44.563Z,70.22
2023-02-15T21:18:20.196Z,77.60
2023-02-15T21:20:57.807Z,78.05
2023-02-15T21:23:35.481Z,80.10
2023-02-15T21:26:19.428Z,78.32
2023-02-15T21:28:57.388Z,74.57
2023-02-15T21:31:30.576Z,82.05
2023-02-15T21:34:04.464Z,75.60
2023-02-15T21:36:39.680Z,86.53
2023-02-15T21:39:17.657Z,72.97
2023-02-15T21:42:12.051Z,83.82
2023-02-15T21:45:02.509Z,92.18
2023-02-15T21:47:53.682Z,84.15
2023-02-15T21:50:45.022Z,80.07
2023-02-15T21:53:23.353Z,79.72
2023-02-15T21:55:58.044Z,78.22
2023-02-15T21:58:34.191Z,74.97
2023-02-15T22:01:08.108Z,79.10
2023-02-15T22:03:42.379Z,82.55
2023-02-15T22:06:15.352Z,80.45
2023-02-15T22:13:58.551Z,82.25
2023-02-15T22:16:31.530Z,82.45
2023-02-15T22:19:04.916Z,80.90
2023-02-15T22:21:37.717Z,85.97
2023-02-15T22:24:10.532Z,86.20
2023-02-15T22:26:43.349Z,82.10
2023-02-15T22:29:19.362Z,81.18
2023-02-15T22:31:52.495Z,86.47
2023-02-15T22:34:28.293Z,85.32
2023-02-15T22:37:01.397Z,85.57
2023-02-15T22:39:34.424Z,83.68
2023-02-15T22:42:18.254Z,91.07
2023-02-15T22:44:55.112Z,80.15
2023-02-15T22:47:32.244Z,86.57
2023-02-15T22:50:18.378Z,82.28
2023-02-15T22:52:53.297Z,81.65
2023-02-15T22:55:28.952Z,87.97
2023-02-15T22:58:02.350Z,91.25
2023-02-15T23:00:40.356Z,82.10
2023-02-15T23:03:18.972Z,85.00
2023-02-15T23:05:52.868Z,82.05
2023-02-15T23:08:26.038Z,78.25
2023-02-15T23:10:58.848Z,86.10
2023-02-15T23:13:33.333Z,85.75
2023-02-15T23:16:09.653Z,88.97
2023-02-15T23:18:44.612Z,81.15
2023-02-15T23:21:21.970Z,85.97
2023-02-15T23:23:56.814Z,87.25
2023-02-15T23:26:32.114Z,86.00
2023-02-15T23:29:07.557Z,86.25
2023-02-15T23:31:45.087Z,84.07
2023-02-15T23:34:21.293Z,82.63
2023-02-15T23:36:54.107Z,90.05
2023-02-15T23:39:46.798Z,86.88
2023-02-15T23:42:22.295Z,93.70
2023-02-15T23:44:55.749Z,89.18
2023-02-15T23:47:46.383Z,84.13
2023-02-15T23:50:21.468Z,83.13
2023-02-15T23:52:55.547Z,92.72
2023-02-15T23:55:38.143Z,89.00
2023-02-15T23:58:16.244Z,87.60
